To NAV CANADA Home Page Login to a new session Search on AWWS site Feedback and Comments Disclaimer Vers la page française équivalente Tips FAQ What's new on the site To the Forecasts and Observations / NOTAM section To "File a Flight Plan" website Publications and other links Update of the User's profile FIC Telephone Numbers My Weather Data Folder Route Weather Data Regional Weather Data Local Weather Data To the Forecasts and Observations / NOTAM section
Request Generated 08/22/2017 at 01:43:47 UTC . Weather information available at that time is displayed.

METAR/TAF

TORONTO/BILLY BISHOP TORONTO CITY AIRPORT/ON    (show WxCam)

METAR CYTZ 220100Z AUTO VRB02KT 9SM CLR 22/20 A3000 RMK SLP159
DENSITY ALT 1000FT=
METAR CYTZ 220000Z AUTO 19007KT 9SM CLR 23/20 A3000 RMK SLP159
DENSITY ALT 1100FT=
METAR CYTZ 212300Z AUTO 18008KT 9SM CLR 24/21 A3000 RMK SLP161
DENSITY ALT 1200FT=

TAF CYTZ 220138Z 2202/2302 19007KT P6SM BKN240
BECMG 2203/2205 23008KT
FM221100 21012KT P6SM FEW012 SCT060 BKN240
BECMG 2212/2214 21012G22KT
FM221500 22018G28KT P6SM -SHRA SCT020 BKN050 OVC210 PROB30
2216/2220 VRB25G40KT 1SM +TSRA BR BKN008 OVC040CB
FM222000 26015G25KT 6SM -SHRA BR BKN020 OVC060
FM222300 30020G30KT P6SM FEW020
RMK FCST BASED ON AUTO OBS. NXT FCST BY 220800Z=
Your time UTC time
Weather data provided by Environment Canada and NAV CANADA